Time;durP1;ratioP1;P1;durP2;ratioP2;P2;SDS_P1;SDS_P2;PMS_P1;PMS_P2;Temp;Humidity;BMP_temperature;BMP_pressure;BME280_temperature;BME280_humidity;BME280_pressure;Samples;Min_cycle;Max_cycle;Signal;HPM_P1;HPM_P2
2022/09/17 00:01:16;;;;;;;2.27;2.07;;;11.50;99.90;;;;;;5089866;28;20397;-81
2022/09/17 00:04:03;;;;;;;2.33;2.20;;;11.50;99.90;;;;;;5088326;28;20746;-82
2022/09/17 00:06:47;;;;;;;1.73;1.63;;;11.60;99.90;;;;;;5088440;28;20401;-82
2022/09/17 00:09:32;;;;;;;4.17;2.80;;;11.40;99.90;;;;;;5089905;28;20440;-81
2022/09/17 00:12:16;;;;;;;3.47;2.23;;;11.40;99.90;;;;;;5074195;28;20381;-81
2022/09/17 00:15:01;;;;;;;2.50;1.93;;;11.40;99.90;;;;;;5088977;28;20464;-81
2022/09/17 00:17:46;;;;;;;5.50;2.70;;;11.40;99.90;;;;;;5089610;28;20396;-81
2022/09/17 00:20:31;;;;;;;4.67;3.00;;;11.40;99.90;;;;;;5100854;28;20444;-82
2022/09/17 00:23:15;;;;;;;2.00;1.90;;;11.30;99.90;;;;;;5109355;28;20427;-82
2022/09/17 00:26:05;;;;;;;2.60;2.30;;;11.40;99.90;;;;;;5109366;28;20477;-82
2022/09/17 00:28:51;;;;;;;3.00;2.70;;;11.30;99.90;;;;;;5110743;28;20411;-81
2022/09/17 00:31:36;;;;;;;3.87;2.70;;;11.40;99.90;;;;;;5086437;28;20434;-82
2022/09/17 00:34:21;;;;;;;3.07;2.77;;;11.20;99.90;;;;;;5108935;28;20419;-82
2022/09/17 00:37:05;;;;;;;2.13;1.93;;;11.30;99.90;;;;;;5108891;28;20484;-82
2022/09/17 00:39:50;;;;;;;2.33;2.17;;;11.00;99.90;;;;;;5087516;28;20416;-82
2022/09/17 00:42:35;;;;;;;2.60;2.27;;;11.20;99.90;;;;;;5094101;28;20434;-81
2022/09/17 00:45:20;;;;;;;2.60;2.37;;;11.10;99.90;;;;;;5109609;28;20387;-82
2022/09/17 00:48:06;;;;;;;2.60;2.40;;;11.20;99.90;;;;;;5088948;28;20389;-82
2022/09/17 00:50:51;;;;;;;4.20;2.70;;;11.30;99.90;;;;;;5109948;28;20419;-82
2022/09/17 00:53:38;;;;;;;6.30;2.67;;;11.30;99.90;;;;;;5086190;28;20507;-82
2022/09/17 00:56:26;;;;;;;3.40;2.47;;;11.30;99.90;;;;;;5109031;28;20467;-82
2022/09/17 00:59:13;;;;;;;2.60;2.40;;;11.30;99.90;;;;;;5110691;28;20416;-82
2022/09/17 01:01:58;;;;;;;3.90;3.40;;;11.30;99.90;;;;;;5110794;28;20440;-82
2022/09/17 01:04:43;;;;;;;2.83;2.20;;;11.30;99.90;;;;;;5110439;28;20392;-82
2022/09/17 01:07:43;;;;;;;15.00;3.93;;;11.20;99.90;;;;;;5114473;28;20384;-80
2022/09/17 01:10:43;;;;;;;6.50;2.90;;;11.20;99.90;;;;;;5114071;28;20393;-79
2022/09/17 01:13:46;;;;;;;3.53;3.13;;;11.20;99.90;;;;;;5091798;28;20452;-81
2022/09/17 01:16:47;;;;;;;3.27;2.90;;;11.30;99.90;;;;;;5108015;28;21005;-81
2022/09/17 01:19:54;;;;;;;3.50;3.20;;;11.00;99.90;;;;;;5085450;28;20471;-81
2022/09/17 01:23:06;;;;;;;3.83;3.10;;;10.90;99.90;;;;;;5100936;28;20387;-81
2022/09/17 01:26:26;;;;;;;2.67;2.47;;;11.10;99.90;;;;;;5107818;28;20395;-81
2022/09/17 01:29:47;;;;;;;3.80;2.57;;;10.90;99.90;;;;;;5107738;28;20419;-81
2022/09/17 01:32:41;;;;;;;4.90;3.40;;;11.00;99.90;;;;;;5096172;28;20411;-81
2022/09/17 01:35:46;;;;;;;3.97;3.33;;;11.10;99.90;;;;;;5107171;28;20439;-81
2022/09/17 01:38:41;;;;;;;4.23;3.20;;;11.10;99.90;;;;;;5108888;28;20464;-79
2022/09/17 01:41:40;;;;;;;5.60;3.10;;;11.20;99.90;;;;;;5117343;28;20424;-80
2022/09/17 01:44:41;;;;;;;4.30;3.60;;;11.10;99.90;;;;;;5111943;28;20387;-82
2022/09/17 01:47:41;;;;;;;7.23;3.53;;;11.20;99.90;;;;;;5108456;28;20414;-82
2022/09/17 01:50:32;;;;;;;4.97;3.67;;;11.20;99.90;;;;;;5108960;28;20384;-82
2022/09/17 01:53:21;;;;;;;3.20;2.93;;;10.80;99.90;;;;;;5109058;28;20458;-80
2022/09/17 01:56:08;;;;;;;5.77;4.07;;;10.90;99.90;;;;;;5108654;28;20459;-81
2022/09/17 01:59:00;;;;;;;4.60;4.10;;;11.00;99.90;;;;;;5108378;28;20412;-82
2022/09/17 02:01:49;;;;;;;3.50;3.20;;;10.90;99.90;;;;;;5109054;28;20401;-82
2022/09/17 02:04:42;;;;;;;3.77;3.30;;;10.90;99.90;;;;;;5102637;28;20438;-82
2022/09/17 02:07:29;;;;;;;5.50;3.77;;;10.90;99.90;;;;;;5108401;28;20423;-82
2022/09/17 02:10:19;;;;;;;6.23;3.37;;;11.00;99.90;;;;;;5108794;28;20442;-82
2022/09/17 02:13:09;;;;;;;4.80;3.77;;;11.00;99.90;;;;;;5109538;28;20787;-81
2022/09/17 02:16:00;;;;;;;4.03;3.63;;;11.10;99.90;;;;;;5107969;28;20494;-81
2022/09/17 02:18:55;;;;;;;7.40;4.67;;;11.10;99.90;;;;;;5087496;28;20447;-82
2022/09/17 02:21:46;;;;;;;10.70;3.90;;;11.10;99.90;;;;;;5107460;28;20388;-81
2022/09/17 02:24:36;;;;;;;4.40;3.93;;;11.20;99.90;;;;;;5092568;28;20419;-80
2022/09/17 02:27:33;;;;;;;7.70;4.53;;;11.00;99.90;;;;;;5111105;28;20396;-81
2022/09/17 02:30:18;;;;;;;4.90;3.87;;;11.10;99.90;;;;;;5111399;28;20389;-82
2022/09/17 02:33:07;;;;;;;7.30;3.93;;;11.30;99.90;;;;;;5110956;28;20403;-82
2022/09/17 02:35:52;;;;;;;6.87;3.73;;;11.30;99.90;;;;;;5111596;28;20489;-81
2022/09/17 02:38:40;;;;;;;4.67;3.60;;;11.30;99.90;;;;;;5110700;28;20392;-81
2022/09/17 02:41:35;;;;;;;4.10;3.10;;;11.20;99.90;;;;;;5110135;28;20879;-82
2022/09/17 02:44:31;;;;;;;5.47;4.27;;;11.10;99.90;;;;;;5110626;28;20392;-81
2022/09/17 02:47:41;;;;;;;4.17;3.77;;;11.30;99.90;;;;;;5110637;28;20383;-82
2022/09/17 02:50:48;;;;;;;4.43;3.30;;;11.30;99.90;;;;;;5102517;28;20388;-82
2022/09/17 02:53:55;;;;;;;6.17;3.63;;;11.30;99.90;;;;;;5110782;28;20379;-82
2022/09/17 02:56:56;;;;;;;5.73;3.53;;;11.40;99.90;;;;;;5110343;28;20464;-81
2022/09/17 03:00:06;;;;;;;3.73;3.00;;;11.30;99.90;;;;;;5110377;28;20395;-81
2022/09/17 03:03:00;;;;;;;5.47;3.80;;;11.40;99.90;;;;;;5109822;28;20400;-82
2022/09/17 03:05:45;;;;;;;9.80;3.23;;;11.30;99.90;;;;;;5110138;28;20384;-81
2022/09/17 03:08:35;;;;;;;6.70;3.67;;;11.30;99.90;;;;;;5110738;28;20388;-81
2022/09/17 03:11:20;;;;;;;3.30;3.00;;;11.40;99.90;;;;;;5110389;28;20924;-81
2022/09/17 03:14:05;;;;;;;4.23;2.90;;;11.60;99.90;;;;;;5095524;28;20411;-82
2022/09/17 03:16:49;;;;;;;6.57;4.43;;;11.60;99.90;;;;;;5111278;28;20392;-81
2022/09/17 03:19:34;;;;;;;6.50;3.20;;;11.60;99.90;;;;;;5080468;28;20455;-82
2022/09/17 03:22:19;;;;;;;3.40;3.20;;;11.50;99.90;;;;;;5110043;28;20420;-82
2022/09/17 03:25:04;;;;;;;13.50;3.80;;;11.40;99.90;;;;;;5111803;28;20395;-83
2022/09/17 03:27:49;;;;;;;5.60;4.10;;;11.40;99.90;;;;;;5109605;28;20452;-81
2022/09/17 03:30:34;;;;;;;7.43;3.10;;;11.50;99.90;;;;;;5109718;28;20423;-82
2022/09/17 03:33:19;;;;;;;3.93;3.00;;;11.50;99.90;;;;;;5109988;28;20384;-80
2022/09/17 03:36:03;;;;;;;2.90;2.30;;;11.70;99.90;;;;;;5093264;28;20459;-81
2022/09/17 03:38:48;;;;;;;5.20;3.47;;;11.70;99.90;;;;;;5109181;28;20412;-81
2022/09/17 03:41:33;;;;;;;9.53;4.20;;;11.70;99.90;;;;;;5109014;28;20415;-81
2022/09/17 03:44:18;;;;;;;10.50;3.13;;;11.60;99.90;;;;;;5108436;28;20389;-82
2022/09/17 03:47:03;;;;;;;6.07;3.70;;;11.70;99.90;;;;;;5093870;28;20429;-81
2022/09/17 03:49:48;;;;;;;4.63;3.03;;;11.70;99.90;;;;;;5089526;28;20440;-81
2022/09/17 03:52:34;;;;;;;4.07;3.33;;;11.70;99.90;;;;;;5087731;28;20920;-82
2022/09/17 03:55:19;;;;;;;4.10;2.93;;;11.70;99.90;;;;;;5087796;28;20468;-80
2022/09/17 03:58:03;;;;;;;3.43;3.13;;;11.60;99.90;;;;;;5073933;28;20439;-81
2022/09/17 04:00:52;;;;;;;3.90;2.80;;;11.70;99.90;;;;;;5090241;28;20389;-81
2022/09/17 04:03:36;;;;;;;8.20;3.80;;;11.60;99.90;;;;;;5073939;28;20397;-81
2022/09/17 04:06:21;;;;;;;5.20;2.90;;;11.70;99.90;;;;;;5087839;28;20443;-81
2022/09/17 04:09:06;;;;;;;3.00;2.70;;;11.60;99.90;;;;;;5087486;28;20901;-82
2022/09/17 04:11:50;;;;;;;6.63;2.77;;;11.60;99.90;;;;;;5088775;28;20415;-81
2022/09/17 04:14:35;;;;;;;7.40;3.27;;;11.70;99.90;;;;;;5089118;28;20423;-82
2022/09/17 04:17:20;;;;;;;11.40;3.03;;;11.60;99.90;;;;;;5077292;28;20369;-81
2022/09/17 04:20:06;;;;;;;4.97;2.63;;;11.60;99.90;;;;;;5089826;28;20468;-82
2022/09/17 04:22:51;;;;;;;6.53;3.67;;;11.60;99.90;;;;;;5074406;28;20444;-82
2022/09/17 04:25:35;;;;;;;2.30;2.10;;;11.50;99.90;;;;;;5089507;28;20385;-81
2022/09/17 04:28:20;;;;;;;2.83;2.40;;;11.50;99.90;;;;;;5091695;28;20396;-81
2022/09/17 04:31:04;;;;;;;5.87;2.97;;;11.50;99.90;;;;;;5078692;28;20397;-81
2022/09/17 04:33:50;;;;;;;5.10;2.70;;;11.50;99.90;;;;;;5091808;28;20385;-81
2022/09/17 04:36:34;;;;;;;4.80;2.93;;;11.50;99.90;;;;;;5091085;28;20444;-81
2022/09/17 04:39:19;;;;;;;4.97;2.80;;;11.60;99.90;;;;;;5093648;28;20384;-78
2022/09/17 04:42:03;;;;;;;3.70;2.97;;;11.40;99.90;;;;;;5094321;28;20405;-79
2022/09/17 04:44:48;;;;;;;2.83;2.63;;;11.50;99.90;;;;;;5089206;28;20446;-82
2022/09/17 04:47:33;;;;;;;3.77;3.13;;;11.60;99.90;;;;;;5087655;28;20420;-81
2022/09/17 04:50:19;;;;;;;3.50;2.70;;;11.60;99.90;;;;;;5072199;28;20393;-79
2022/09/17 04:53:03;;;;;;;3.20;2.87;;;11.60;99.90;;;;;;5087376;28;20445;-82
2022/09/17 04:55:48;;;;;;;3.40;2.77;;;11.60;99.90;;;;;;5087283;28;20437;-80
2022/09/17 04:58:32;;;;;;;3.90;3.50;;;11.60;99.90;;;;;;5087620;28;20407;-81
2022/09/17 05:01:17;;;;;;;2.60;2.40;;;11.60;99.90;;;;;;5072217;28;20385;-81
2022/09/17 05:04:02;;;;;;;2.43;2.23;;;11.40;99.90;;;;;;5072174;28;20519;-80
2022/09/17 05:06:47;;;;;;;4.83;2.20;;;11.30;99.90;;;;;;5087106;28;20392;-81
2022/09/17 05:09:31;;;;;;;2.57;2.37;;;11.20;99.90;;;;;;5073261;28;20405;-79
2022/09/17 05:12:16;;;;;;;2.20;2.10;;;11.30;99.90;;;;;;5093725;28;20397;-79
2022/09/17 05:15:01;;;;;;;2.80;2.60;;;11.40;99.90;;;;;;5094543;28;20479;-80
2022/09/17 05:17:45;;;;;;;2.27;1.93;;;11.40;99.90;;;;;;5080474;28;20385;-79
2022/09/17 05:20:30;;;;;;;4.47;2.83;;;11.40;99.90;;;;;;5115112;28;20470;-79
2022/09/17 05:23:15;;;;;;;3.93;2.43;;;11.40;99.90;;;;;;5116708;28;20415;-79
2022/09/17 05:26:00;;;;;;;4.80;2.20;;;11.40;99.90;;;;;;5113950;28;20457;-81
2022/09/17 05:28:44;;;;;;;2.63;2.43;;;11.50;99.90;;;;;;5108249;28;20391;-81
2022/09/17 05:31:29;;;;;;;2.10;2.00;;;11.20;99.90;;;;;;5091526;28;20388;-82
2022/09/17 05:34:14;;;;;;;2.63;2.00;;;11.20;99.90;;;;;;5107838;28;20392;-82
2022/09/17 05:36:58;;;;;;;2.33;2.23;;;11.30;99.90;;;;;;5107039;28;20387;-81
2022/09/17 05:39:43;;;;;;;2.07;1.50;;;11.30;99.90;;;;;;5107353;28;20382;-81
2022/09/17 05:42:28;;;;;;;1.57;1.47;;;10.90;99.90;;;;;;5107484;28;20417;-82
2022/09/17 05:45:12;;;;;;;1.47;1.37;;;10.90;99.90;;;;;;5091612;28;20396;-82
2022/09/17 05:47:59;;;;;;;1.60;1.40;;;11.00;99.90;;;;;;5107065;28;20426;-80
2022/09/17 05:50:43;;;;;;;1.50;1.40;;;11.00;99.90;;;;;;5107177;28;20388;-81
2022/09/17 05:53:28;;;;;;;1.97;1.40;;;11.10;99.90;;;;;;5091357;28;20399;-82
2022/09/17 05:56:13;;;;;;;3.37;2.03;;;11.00;99.90;;;;;;5107057;28;20455;-81
2022/09/17 05:58:58;;;;;;;1.53;1.40;;;11.10;99.90;;;;;;5107454;28;20392;-81
2022/09/17 06:01:44;;;;;;;1.77;1.63;;;11.10;99.90;;;;;;5095514;28;20459;-81
2022/09/17 06:04:28;;;;;;;2.00;1.90;;;11.20;99.90;;;;;;5096525;28;20773;-80
2022/09/17 06:07:13;;;;;;;2.40;1.63;;;11.20;99.90;;;;;;5111595;28;20892;-81
2022/09/17 06:09:58;;;;;;;1.73;1.63;;;11.20;99.90;;;;;;5111178;28;20384;-82
2022/09/17 06:12:42;;;;;;;1.67;1.20;;;11.30;99.90;;;;;;5095632;28;20395;-81
2022/09/17 06:15:27;;;;;;;1.97;1.60;;;11.40;99.90;;;;;;5109968;28;20566;-81
2022/09/17 06:18:12;;;;;;;2.03;1.60;;;11.40;99.90;;;;;;5110445;28;20398;-82
2022/09/17 06:20:58;;;;;;;3.20;1.73;;;11.50;99.90;;;;;;5096723;28;20903;-80
2022/09/17 06:23:43;;;;;;;2.07;1.87;;;11.40;99.90;;;;;;5109968;28;20388;-82
2022/09/17 06:26:27;;;;;;;1.73;1.63;;;11.50;99.90;;;;;;5108966;28;20384;-83
2022/09/17 06:29:14;;;;;;;1.57;1.47;;;11.40;99.90;;;;;;5108896;28;20869;-81
2022/09/17 06:31:59;;;;;;;3.87;2.10;;;11.50;99.90;;;;;;5110164;28;20747;-82
2022/09/17 06:34:44;;;;;;;2.90;1.70;;;11.50;99.90;;;;;;5109624;28;20427;-82
2022/09/17 06:37:30;;;;;;;2.80;2.60;;;11.60;99.90;;;;;;5094810;28;20376;-82
2022/09/17 06:40:14;;;;;;;3.90;2.47;;;11.60;99.90;;;;;;5109181;28;20850;-82
2022/09/17 06:42:59;;;;;;;3.53;2.03;;;11.70;99.90;;;;;;5110524;28;20388;-81
2022/09/17 06:45:43;;;;;;;1.90;1.80;;;11.70;99.90;;;;;;5095444;28;20407;-80
2022/09/17 06:48:29;;;;;;;4.40;2.93;;;11.70;99.90;;;;;;5110873;28;20412;-81
2022/09/17 06:51:14;;;;;;;3.13;2.83;;;11.70;99.90;;;;;;5109917;28;20407;-81
2022/09/17 06:54:02;;;;;;;3.00;2.40;;;11.80;99.90;;;;;;5110399;28;20420;-80
2022/09/17 06:56:46;;;;;;;3.17;2.87;;;11.80;99.90;;;;;;5081704;28;20506;-82
2022/09/17 06:59:31;;;;;;;2.30;2.20;;;11.80;99.90;;;;;;5110008;28;20422;-81
2022/09/17 07:02:16;;;;;;;4.00;2.60;;;11.70;99.90;;;;;;5109181;28;20734;-82
2022/09/17 07:05:01;;;;;;;14.93;3.20;;;11.80;99.90;;;;;;5109927;28;20399;-82
2022/09/17 07:07:46;;;;;;;3.63;2.40;;;11.90;99.90;;;;;;5109619;28;20495;-81
2022/09/17 07:10:31;;;;;;;2.57;2.37;;;11.90;99.90;;;;;;5109100;28;20415;-81
2022/09/17 07:13:16;;;;;;;2.17;1.93;;;12.00;99.90;;;;;;5110113;28;20399;-81
2022/09/17 07:16:03;;;;;;;4.17;2.87;;;12.10;99.90;;;;;;5108922;28;20497;-82
2022/09/17 07:18:47;;;;;;;7.90;2.50;;;12.10;99.90;;;;;;5109449;28;20978;-82
2022/09/17 07:21:32;;;;;;;3.80;2.50;;;12.10;99.90;;;;;;5097834;28;20430;-81
2022/09/17 07:24:17;;;;;;;6.00;3.00;;;12.10;99.90;;;;;;5108093;28;20423;-80
2022/09/17 07:27:02;;;;;;;2.90;2.20;;;12.10;99.90;;;;;;5093851;28;20399;-81
2022/09/17 07:29:46;;;;;;;3.50;2.90;;;12.30;99.90;;;;;;5122065;28;20392;-82
2022/09/17 07:32:31;;;;;;;3.97;2.77;;;12.40;99.90;;;;;;5108076;28;20388;-81
2022/09/17 07:35:16;;;;;;;2.97;2.77;;;12.40;99.90;;;;;;5109357;28;20500;-81
2022/09/17 07:38:01;;;;;;;7.33;2.83;;;12.30;99.90;;;;;;5109048;28;20396;-81
2022/09/17 07:41:08;;;;;;;3.10;2.80;;;12.40;99.90;;;;;;5107724;28;20403;-79
2022/09/17 07:43:54;;;;;;;2.10;1.87;;;12.30;99.90;;;;;;5107136;28;20407;-79
2022/09/17 07:46:39;;;;;;;5.63;2.87;;;12.30;99.90;;;;;;5109584;28;20396;-81
2022/09/17 07:49:23;;;;;;;4.83;3.00;;;12.20;99.90;;;;;;5109184;28;20389;-81
2022/09/17 07:52:08;;;;;;;5.17;3.07;;;12.20;99.90;;;;;;5109020;28;20384;-82
2022/09/17 07:54:53;;;;;;;2.83;2.63;;;12.20;99.90;;;;;;5092805;28;20461;-81
2022/09/17 07:57:38;;;;;;;6.10;2.80;;;12.20;99.90;;;;;;5106821;28;20423;-81
2022/09/17 08:00:24;;;;;;;2.97;2.77;;;12.20;99.90;;;;;;5108031;28;20396;-82
2022/09/17 08:03:09;;;;;;;7.30;3.00;;;12.30;99.90;;;;;;5108045;28;20862;-81
2022/09/17 08:05:59;;;;;;;3.17;2.67;;;12.20;99.90;;;;;;5108087;28;20396;-82
2022/09/17 08:08:44;;;;;;;7.07;2.67;;;12.20;99.90;;;;;;5092401;28;20426;-82
2022/09/17 08:11:30;;;;;;;3.77;2.83;;;12.30;99.90;;;;;;5121795;28;20384;-81
2022/09/17 08:14:16;;;;;;;3.67;2.70;;;12.50;99.90;;;;;;5108078;28;20388;-83
2022/09/17 08:17:00;;;;;;;11.97;3.00;;;12.60;99.90;;;;;;5110984;28;20428;-82
2022/09/17 08:19:45;;;;;;;4.27;2.97;;;12.60;99.90;;;;;;5094304;28;20450;-82
2022/09/17 08:22:30;;;;;;;5.40;3.53;;;12.70;99.90;;;;;;5092584;28;20400;-82
2022/09/17 08:25:15;;;;;;;5.17;2.70;;;12.80;99.90;;;;;;5108300;28;20383;-82
2022/09/17 08:27:59;;;;;;;4.30;3.07;;;12.90;99.90;;;;;;5107769;28;20416;-83
2022/09/17 08:30:45;;;;;;;8.13;2.83;;;13.00;99.90;;;;;;5107975;28;20411;-81
2022/09/17 08:33:31;;;;;;;5.10;3.50;;;13.10;99.90;;;;;;5107993;28;20413;-82
2022/09/17 08:36:18;;;;;;;4.60;2.70;;;13.40;99.90;;;;;;5108054;28;20496;-83
2022/09/17 08:39:03;;;;;;;6.77;3.10;;;13.50;99.90;;;;;;5108407;28;20396;-83
2022/09/17 08:42:16;;;;;;;6.40;2.83;;;13.50;99.90;;;;;;5092589;28;20388;-82
2022/09/17 08:45:03;;;;;;;2.47;2.30;;;13.50;99.90;;;;;;5108006;28;20430;-83
2022/09/17 08:47:48;;;;;;;12.73;2.43;;;13.40;99.90;;;;;;5107967;28;20388;-80
2022/09/17 08:50:53;;;;;;;3.70;2.60;;;13.50;99.90;;;;;;5071372;28;20405;-82
2022/09/17 08:53:57;;;;;;;3.57;2.87;;;13.50;99.90;;;;;;5083275;28;20431;-82
2022/09/17 08:56:49;;;;;;;8.00;2.70;;;13.60;99.90;;;;;;5084174;28;20479;-80
2022/09/17 08:59:58;;;;;;;8.53;2.77;;;13.60;99.90;;;;;;5099819;28;20423;-81
2022/09/17 09:03:17;;;;;;;4.03;3.07;;;13.90;99.90;;;;;;5089987;28;20389;-79
2022/09/17 09:06:01;;;;;;;5.23;3.13;;;14.60;99.90;;;;;;5084502;28;20413;-81
2022/09/17 09:08:54;;;;;;;6.22;2.70;;;14.90;99.90;;;;;;5082614;28;20397;-81
2022/09/17 09:11:41;;;;;;;4.10;3.10;;;15.20;99.90;;;;;;5083842;28;20933;-81
2022/09/17 09:14:48;;;;;;;6.23;2.60;;;15.10;99.90;;;;;;5103050;28;20449;-82
2022/09/17 09:17:40;;;;;;;10.17;2.53;;;15.10;99.90;;;;;;5049184;28;20418;-83
2022/09/17 09:20:44;;;;;;;7.10;3.13;;;14.60;99.90;;;;;;5063263;28;20484;-82
2022/09/17 09:23:47;;;;;;;6.40;3.43;;;14.60;99.90;;;;;;5081457;28;20453;-83
2022/09/17 09:26:44;;;;;;;4.00;2.63;;;14.70;99.90;;;;;;5096574;28;20409;-81
2022/09/17 09:29:47;;;;;;;4.20;2.87;;;14.50;99.90;;;;;;5081077;28;20397;-78
2022/09/17 09:32:56;;;;;;;6.60;2.73;;;14.30;99.90;;;;;;5067742;28;20389;-82
2022/09/17 09:35:43;;;;;;;5.80;2.60;;;14.70;99.90;;;;;;5073775;28;20522;-82
2022/09/17 09:38:42;;;;;;;2.83;2.57;;;14.80;99.90;;;;;;5073531;28;20389;-82
2022/09/17 09:41:39;;;;;;;4.47;2.93;;;15.30;99.90;;;;;;5087909;28;20467;-82
2022/09/17 09:44:24;;;;;;;7.03;2.67;;;15.80;99.90;;;;;;5087861;28;20389;-83
2022/09/17 09:47:33;;;;;;;7.60;2.30;;;15.80;99.90;;;;;;5087789;28;20420;-83
2022/09/17 09:50:32;;;;;;;6.60;3.00;;;16.10;99.90;;;;;;5058539;28;20420;-82
2022/09/17 09:53:34;;;;;;;7.57;3.17;;;15.70;99.90;;;;;;5089044;28;20385;-82
2022/09/17 09:56:34;;;;;;;14.07;3.00;;;15.50;99.90;;;;;;5109703;28;20970;-80
2022/09/17 09:59:19;;;;;;;5.13;2.60;;;15.60;99.90;;;;;;5110975;28;20453;-82
2022/09/17 10:02:04;;;;;;;8.10;3.03;;;15.40;99.90;;;;;;5111318;28;20402;-83
2022/09/17 10:04:48;;;;;;;2.80;2.60;;;15.00;99.90;;;;;;5112711;28;20459;-83
2022/09/17 10:07:43;;;;;;;9.60;3.00;;;14.90;99.90;;;;;;5105266;28;20415;-82
2022/09/17 10:11:01;;;;;;;8.50;2.90;;;15.00;99.90;;;;;;5120573;28;20399;-80
2022/09/17 10:13:46;;;;;;;8.60;1.80;;;15.10;99.90;;;;;;5077945;28;20640;-82
2022/09/17 10:16:35;;;;;;;5.20;2.90;;;15.10;99.90;;;;;;5068740;28;20469;-83
2022/09/17 10:19:24;;;;;;;2.90;2.10;;;15.20;99.90;;;;;;5067978;28;20453;-82
2022/09/17 10:22:24;;;;;;;4.43;2.80;;;15.00;99.90;;;;;;5067372;28;20507;-82
2022/09/17 10:25:29;;;;;;;3.53;2.53;;;14.90;99.90;;;;;;5067063;28;20397;-82
2022/09/17 10:28:33;;;;;;;6.60;2.80;;;14.80;99.90;;;;;;5080875;28;20441;-82
2022/09/17 10:31:17;;;;;;;3.53;2.67;;;15.10;99.90;;;;;;5067261;28;20392;-80
2022/09/17 10:34:03;;;;;;;10.20;2.90;;;15.60;99.90;;;;;;5068424;28;20417;-80
2022/09/17 10:36:49;;;;;;;3.30;2.87;;;15.70;99.90;;;;;;5091996;28;20548;-81
2022/09/17 10:39:36;;;;;;;12.30;2.97;;;15.90;99.90;;;;;;5069335;28;20440;-82
2022/09/17 10:42:21;;;;;;;5.57;2.87;;;15.90;99.90;;;;;;5059726;28;20459;-82
2022/09/17 10:45:24;;;;;;;15.73;2.77;;;15.90;99.90;;;;;;5079633;28;20403;-81
2022/09/17 10:48:16;;;;;;;2.13;2.03;;;15.90;99.90;;;;;;5098655;28;20388;-81
2022/09/17 10:51:02;;;;;;;9.93;2.73;;;16.30;99.90;;;;;;5073024;28;20491;-82
2022/09/17 10:54:03;;;;;;;3.70;2.80;;;17.00;99.90;;;;;;5098949;28;20384;-81
2022/09/17 10:56:53;;;;;;;9.63;2.23;;;17.30;99.90;;;;;;5084481;28;20455;-83
2022/09/17 11:00:01;;;;;;;4.20;2.20;;;17.60;99.90;;;;;;5100454;28;20438;-82
2022/09/17 11:03:16;;;;;;;11.43;2.53;;;17.50;99.90;;;;;;5099198;28;20385;-81
2022/09/17 11:06:26;;;;;;;8.50;3.10;;;17.40;99.90;;;;;;5089443;28;20404;-83
2022/09/17 11:09:22;;;;;;;3.83;3.13;;;17.70;99.90;;;;;;5099847;28;20888;-82
2022/09/17 11:12:23;;;;;;;2.33;2.10;;;17.90;99.90;;;;;;5082940;28;20434;-80
2022/09/17 11:15:32;;;;;;;7.17;2.63;;;17.60;99.90;;;;;;5098160;28;20482;-83
2022/09/17 11:18:38;;;;;;;3.73;1.90;;;17.20;99.90;;;;;;5099682;28;20450;-81
2022/09/17 11:21:44;;;;;;;4.33;2.73;;;16.90;99.90;;;;;;5098918;28;20431;-80
2022/09/17 11:24:52;;;;;;;7.80;2.83;;;16.40;99.90;;;;;;5098382;28;20393;-81
2022/09/17 11:27:52;;;;;;;7.13;2.27;;;16.30;99.90;;;;;;5097751;28;20462;-78
2022/09/17 11:30:55;;;;;;;3.13;1.90;;;17.20;99.90;;;;;;5082519;28;20403;-81
2022/09/17 11:34:03;;;;;;;3.10;2.33;;;16.70;99.90;;;;;;5102643;28;20438;-82
2022/09/17 11:36:58;;;;;;;6.80;2.10;;;16.60;99.90;;;;;;5098295;28;20471;-82
2022/09/17 11:40:07;;;;;;;2.00;1.80;;;16.50;99.90;;;;;;5077343;28;20892;-82
2022/09/17 11:43:00;;;;;;;4.20;1.90;;;17.10;99.90;;;;;;5077696;28;20877;-82
2022/09/17 11:46:06;;;;;;;5.67;2.27;;;17.40;99.90;;;;;;5076736;28;20506;-82
2022/09/17 11:49:05;;;;;;;3.47;1.90;;;19.00;99.90;;;;;;5076421;28;20412;-82
2022/09/17 11:51:58;;;;;;;2.40;2.17;;;20.10;99.90;;;;;;5048409;28;20466;-80
2022/09/17 11:54:52;;;;;;;3.80;1.90;;;20.90;99.90;;;;;;5077133;28;20523;-82
2022/09/17 11:57:40;;;;;;;3.90;2.13;;;21.30;99.90;;;;;;5076258;28;20475;-81
2022/09/17 12:00:30;;;;;;;2.77;2.47;;;22.10;98.30;;;;;;5077577;28;20487;-81
2022/09/17 12:03:27;;;;;;;3.27;2.57;;;22.60;94.50;;;;;;5062641;28;20411;-81
2022/09/17 12:06:20;;;;;;;2.17;2.00;;;23.20;96.80;;;;;;5077332;28;20504;-83
2022/09/17 12:09:14;;;;;;;4.30;2.23;;;23.40;90.00;;;;;;5063484;28;20461;-81
2022/09/17 12:12:15;;;;;;;4.73;2.30;;;22.60;90.20;;;;;;5078078;28;20901;-82
2022/09/17 12:15:06;;;;;;;3.60;2.33;;;21.10;92.30;;;;;;5076775;28;20459;-80
2022/09/17 12:18:16;;;;;;;3.63;2.20;;;18.60;97.80;;;;;;5077547;28;20393;-81
2022/09/17 12:21:03;;;;;;;1.83;1.73;;;18.00;99.90;;;;;;5078004;28;20401;-81
2022/09/17 12:23:58;;;;;;;1.90;1.67;;;17.60;99.90;;;;;;5070219;28;20451;-79
2022/09/17 12:27:07;;;;;;;3.03;2.10;;;17.00;99.90;;;;;;5082678;28;20416;-82
2022/09/17 12:30:19;;;;;;;10.27;1.57;;;16.60;99.90;;;;;;5077857;28;20386;-81
2022/09/17 12:33:23;;;;;;;3.40;2.10;;;15.70;99.90;;;;;;5077498;28;20927;-81
2022/09/17 12:36:22;;;;;;;3.00;2.13;;;15.10;99.90;;;;;;5086926;28;20459;-81
2022/09/17 12:39:44;;;;;;;2.07;1.73;;;15.00;99.90;;;;;;5089501;28;20408;-81
2022/09/17 12:42:47;;;;;;;8.23;1.63;;;14.80;99.90;;;;;;5087318;28;20400;-81
2022/09/17 12:45:46;;;;;;;1.47;1.37;;;14.80;99.90;;;;;;5100730;28;20492;-81
2022/09/17 12:48:56;;;;;;;1.50;1.40;;;15.20;99.90;;;;;;5089495;28;20400;-81
2022/09/17 12:51:53;;;;;;;2.10;1.87;;;16.20;99.90;;;;;;5088342;28;20416;-80
2022/09/17 12:55:15;;;;;;;1.93;1.40;;;17.50;99.90;;;;;;5087491;28;20396;-81
2022/09/17 12:58:32;;;;;;;1.70;1.60;;;17.40;99.90;;;;;;5086032;28;20952;-78
2022/09/17 13:01:33;;;;;;;5.40;2.03;;;17.50;99.90;;;;;;5073593;28;20865;-81
2022/09/17 13:04:39;;;;;;;3.33;1.90;;;18.60;99.90;;;;;;5089253;28;20373;-80
2022/09/17 13:07:43;;;;;;;3.60;1.63;;;20.20;99.90;;;;;;5086312;28;20388;-80
2022/09/17 13:10:40;;;;;;;2.00;1.80;;;21.00;99.90;;;;;;5069279;28;20424;-79
2022/09/17 13:13:56;;;;;;;1.97;1.57;;;21.10;99.90;;;;;;5056756;28;20417;-81
2022/09/17 13:16:52;;;;;;;2.50;1.70;;;20.80;99.90;;;;;;5088013;28;20445;-82
2022/09/17 13:19:51;;;;;;;2.20;1.80;;;19.70;99.90;;;;;;5050433;28;20516;-81
2022/09/17 13:22:44;;;;;;;3.33;1.83;;;18.70;99.90;;;;;;5058580;28;20435;-81
2022/09/17 13:25:29;;;;;;;6.50;2.17;;;18.70;99.90;;;;;;5045033;28;20505;-81
2022/09/17 13:28:14;;;;;;;1.97;1.77;;;18.50;99.90;;;;;;5058620;28;20430;-81
2022/09/17 13:31:20;;;;;;;2.43;2.00;;;19.60;99.90;;;;;;5044614;28;20391;-81
2022/09/17 13:34:28;;;;;;;2.70;1.90;;;20.50;99.90;;;;;;5064635;28;20429;-81
2022/09/17 13:37:21;;;;;;;2.17;1.60;;;21.20;99.90;;;;;;5065547;28;20462;-81
2022/09/17 13:40:26;;;;;;;2.47;2.00;;;21.90;99.90;;;;;;5064343;28;20541;-80
2022/09/17 13:43:15;;;;;;;2.57;1.70;;;22.10;99.90;;;;;;5062812;28;20415;-79
2022/09/17 13:46:09;;;;;;;4.07;1.70;;;22.70;95.80;;;;;;5064255;28;20401;-80
2022/09/17 13:48:58;;;;;;;2.83;1.50;;;20.80;97.50;;;;;;5050751;28;20424;-79
2022/09/17 13:51:46;;;;;;;4.50;2.43;;;20.20;99.90;;;;;;5059703;28;20386;-81
2022/09/17 13:54:38;;;;;;;3.57;2.10;;;19.30;99.90;;;;;;5050645;28;20757;-81
2022/09/17 13:57:25;;;;;;;3.40;1.80;;;18.50;99.90;;;;;;5050416;28;20422;-81
2022/09/17 14:00:47;;;;;;;1.67;1.57;;;17.80;99.90;;;;;;5064862;28;20390;-81
2022/09/17 14:03:52;;;;;;;3.90;2.00;;;17.20;99.90;;;;;;5065225;28;20374;-79
2022/09/17 14:06:50;;;;;;;2.03;1.80;;;17.70;99.90;;;;;;5066271;28;20454;-80
2022/09/17 14:09:54;;;;;;;1.60;1.50;;;18.90;99.90;;;;;;5050725;28;20433;-80
2022/09/17 14:12:51;;;;;;;3.30;1.70;;;19.70;99.90;;;;;;5051887;28;20416;-81
2022/09/17 14:15:55;;;;;;;2.72;1.80;;;19.50;99.90;;;;;;5063183;28;20455;-80
2022/09/17 14:18:42;;;;;;;2.50;1.70;;;20.20;99.90;;;;;;5058576;28;20231;-81
2022/09/17 14:21:31;;;;;;;2.70;1.93;;;20.10;99.90;;;;;;5026782;28;20383;-80
2022/09/17 14:24:22;;;;;;;1.73;1.43;;;19.20;99.90;;;;;;5039397;28;20401;-81
2022/09/17 14:27:39;;;;;;;2.40;1.60;;;19.20;99.90;;;;;;5077220;28;20933;-80
2022/09/17 14:30:32;;;;;;;2.60;1.80;;;18.60;99.90;;;;;;5065381;28;20461;-80
2022/09/17 14:33:25;;;;;;;3.77;2.50;;;18.40;99.90;;;;;;5049509;28;20524;-80
2022/09/17 14:36:19;;;;;;;4.20;2.17;;;18.00;99.90;;;;;;5036317;28;20476;-80
2022/09/17 14:39:13;;;;;;;4.77;2.57;;;17.50;99.90;;;;;;5035908;28;20379;-81
2022/09/17 14:42:01;;;;;;;2.70;1.80;;;17.00;99.90;;;;;;5035582;28;20425;-82
2022/09/17 14:45:16;;;;;;;2.77;2.40;;;16.70;99.90;;;;;;5041813;28;20399;-80
2022/09/17 14:48:19;;;;;;;3.17;2.30;;;16.40;99.90;;;;;;5026394;28;20410;-80
2022/09/17 14:51:26;;;;;;;3.77;2.97;;;16.30;99.90;;;;;;5022312;28;20427;-81
2022/09/17 14:54:29;;;;;;;3.43;2.20;;;16.00;99.90;;;;;;5026116;28;20438;-80